sensor_id;sensor_type;location;lat;lon;timestamp;noise_LAeq;noise_LA_min;noise_LA_max;noise_LA01;noise_LA95
68279;Laerm;55108;51.790;10.960;2023-03-11T00:01:22;51.79;42.07;73.48;;
68279;Laerm;55108;51.790;10.960;2023-03-11T00:03:47;49.35;38.62;66.97;;
68279;Laerm;55108;51.790;10.960;2023-03-11T00:06:13;68.37;40.73;83.90;;
68279;Laerm;55108;51.790;10.960;2023-03-11T00:08:38;51.53;40.20;74.62;;
68279;Laerm;55108;51.790;10.960;2023-03-11T00:11:03;49.53;40.80;69.01;;
68279;Laerm;55108;51.790;10.960;2023-03-11T00:13:28;45.45;40.08;58.09;;
68279;Laerm;55108;51.790;10.960;2023-03-11T00:15:54;57.62;40.70;79.32;;
68279;Laerm;55108;51.790;10.960;2023-03-11T00:18:24;55.35;46.32;76.26;;
68279;Laerm;55108;51.790;10.960;2023-03-11T00:20:51;53.79;42.07;75.52;;
68279;Laerm;55108;51.790;10.960;2023-03-11T00:23:17;59.68;41.11;76.03;;
68279;Laerm;55108;51.790;10.960;2023-03-11T00:25:43;50.30;40.11;63.65;;
68279;Laerm;55108;51.790;10.960;2023-03-11T00:28:08;53.17;42.10;76.19;;
68279;Laerm;55108;51.790;10.960;2023-03-11T00:30:37;51.66;43.44;67.85;;
68279;Laerm;55108;51.790;10.960;2023-03-11T00:33:03;53.99;44.71;67.61;;
68279;Laerm;55108;51.790;10.960;2023-03-11T00:35:30;52.95;40.29;70.19;;
68279;Laerm;55108;51.790;10.960;2023-03-11T00:37:56;56.12;40.70;75.94;;
68279;Laerm;55108;51.790;10.960;2023-03-11T00:40:22;51.25;42.01;69.52;;
68279;Laerm;55108;51.790;10.960;2023-03-11T00:42:48;48.89;41.11;63.38;;
68279;Laerm;55108;51.790;10.960;2023-03-11T00:45:13;51.48;40.25;68.03;;
68279;Laerm;55108;51.790;10.960;2023-03-11T00:47:38;65.32;43.21;80.65;;
68279;Laerm;55108;51.790;10.960;2023-03-11T00:50:04;60.14;41.33;78.20;;
68279;Laerm;55108;51.790;10.960;2023-03-11T00:52:30;48.71;38.99;67.62;;
68279;Laerm;55108;51.790;10.960;2023-03-11T00:54:55;46.42;39.33;67.43;;
68279;Laerm;55108;51.790;10.960;2023-03-11T00:57:22;49.00;38.04;61.08;;
68279;Laerm;55108;51.790;10.960;2023-03-11T00:59:47;61.82;40.79;76.47;;
68279;Laerm;55108;51.790;10.960;2023-03-11T01:02:12;56.37;37.36;76.53;;
68279;Laerm;55108;51.790;10.960;2023-03-11T01:04:37;65.28;39.46;81.98;;
68279;Laerm;55108;51.790;10.960;2023-03-11T01:07:02;46.69;39.03;63.97;;
68279;Laerm;55108;51.790;10.960;2023-03-11T01:09:27;49.64;39.93;64.53;;
68279;Laerm;55108;51.790;10.960;2023-03-11T01:11:53;55.13;38.47;73.37;;
68279;Laerm;55108;51.790;10.960;2023-03-11T01:14:18;46.82;39.40;58.26;;
68279;Laerm;55108;51.790;10.960;2023-03-11T01:16:43;44.44;37.81;62.86;;
68279;Laerm;55108;51.790;10.960;2023-03-11T01:19:08;44.51;36.67;59.25;;
68279;Laerm;55108;51.790;10.960;2023-03-11T01:21:33;55.64;41.92;75.54;;
68279;Laerm;55108;51.790;10.960;2023-03-11T01:23:59;45.66;36.95;62.96;;
68279;Laerm;55108;51.790;10.960;2023-03-11T01:26:24;44.87;36.63;64.13;;
68279;Laerm;55108;51.790;10.960;2023-03-11T01:28:49;46.50;38.81;65.07;;
68279;Laerm;55108;51.790;10.960;2023-03-11T01:31:14;47.00;36.93;66.63;;
68279;Laerm;55108;51.790;10.960;2023-03-11T01:33:39;44.75;37.37;62.04;;
68279;Laerm;55108;51.790;10.960;2023-03-11T01:36:04;44.33;38.20;59.15;;
68279;Laerm;55108;51.790;10.960;2023-03-11T01:38:30;46.23;38.24;59.41;;
68279;Laerm;55108;51.790;10.960;2023-03-11T01:40:55;50.40;38.96;75.57;;
68279;Laerm;55108;51.790;10.960;2023-03-11T01:48:26;47.88;36.75;69.87;;
68279;Laerm;55108;51.790;10.960;2023-03-11T01:50:51;55.26;38.52;70.21;;
68279;Laerm;55108;51.790;10.960;2023-03-11T01:53:16;45.41;35.56;58.23;;
68279;Laerm;55108;51.790;10.960;2023-03-11T01:55:42;49.41;40.10;69.18;;
68279;Laerm;55108;51.790;10.960;2023-03-11T01:58:09;48.41;41.80;64.40;;
68279;Laerm;55108;51.790;10.960;2023-03-11T02:00:36;46.90;37.96;67.61;;
68279;Laerm;55108;51.790;10.960;2023-03-11T02:03:01;45.14;37.52;58.51;;
68279;Laerm;55108;51.790;10.960;2023-03-11T02:05:30;42.90;36.09;52.61;;
68279;Laerm;55108;51.790;10.960;2023-03-11T02:07:57;47.64;34.88;63.22;;
68279;Laerm;55108;51.790;10.960;2023-03-11T02:10:22;46.50;37.79;53.52;;
68279;Laerm;55108;51.790;10.960;2023-03-11T02:12:48;61.83;37.07;80.64;;
68279;Laerm;55108;51.790;10.960;2023-03-11T02:15:14;43.55;34.74;65.99;;
68279;Laerm;55108;51.790;10.960;2023-03-11T02:17:39;42.81;34.89;60.42;;
68279;Laerm;55108;51.790;10.960;2023-03-11T02:20:14;45.66;37.24;63.10;;
68279;Laerm;55108;51.790;10.960;2023-03-11T02:22:42;48.98;38.55;69.53;;
68279;Laerm;55108;51.790;10.960;2023-03-11T02:25:14;52.69;38.68;69.07;;
68279;Laerm;55108;51.790;10.960;2023-03-11T02:27:42;49.71;36.95;66.04;;
68279;Laerm;55108;51.790;10.960;2023-03-11T02:30:09;66.50;38.67;84.49;;
68279;Laerm;55108;51.790;10.960;2023-03-11T02:32:35;42.55;35.85;56.90;;
68279;Laerm;55108;51.790;10.960;2023-03-11T02:35:00;71.19;36.39;89.29;;
68279;Laerm;55108;51.790;10.960;2023-03-11T02:37:25;66.91;37.13;85.08;;
68279;Laerm;55108;51.790;10.960;2023-03-11T02:39:52;70.84;38.79;89.32;;
68279;Laerm;55108;51.790;10.960;2023-03-11T02:42:30;53.76;36.88;74.45;;
68279;Laerm;55108;51.790;10.960;2023-03-11T02:45:02;58.65;36.57;76.81;;
68279;Laerm;55108;51.790;10.960;2023-03-11T02:47:28;45.78;34.84;66.85;;
68279;Laerm;55108;51.790;10.960;2023-03-11T02:49:54;60.15;38.22;79.30;;
68279;Laerm;55108;51.790;10.960;2023-03-11T02:52:21;59.79;41.01;78.97;;
68279;Laerm;55108;51.790;10.960;2023-03-11T02:54:46;47.09;38.09;60.58;;
68279;Laerm;55108;51.790;10.960;2023-03-11T02:57:11;58.61;39.86;74.57;;
68279;Laerm;55108;51.790;10.960;2023-03-11T02:59:36;62.32;36.78;79.89;;
68279;Laerm;55108;51.790;10.960;2023-03-11T03:02:02;62.99;36.13;81.58;;
68279;Laerm;55108;51.790;10.960;2023-03-11T03:04:27;67.37;38.70;85.28;;
68279;Laerm;55108;51.790;10.960;2023-03-11T03:06:52;54.33;38.47;76.76;;
68279;Laerm;55108;51.790;10.960;2023-03-11T03:09:17;60.18;38.98;82.02;;
68279;Laerm;55108;51.790;10.960;2023-03-11T03:11:42;48.24;39.22;63.24;;
68279;Laerm;55108;51.790;10.960;2023-03-11T03:14:08;49.89;39.50;74.02;;
68279;Laerm;55108;51.790;10.960;2023-03-11T03:16:33;66.56;39.30;82.84;;
68279;Laerm;55108;51.790;10.960;2023-03-11T03:18:58;68.37;37.98;86.28;;
68279;Laerm;55108;51.790;10.960;2023-03-11T03:21:23;50.56;35.96;66.70;;
68279;Laerm;55108;51.790;10.960;2023-03-11T03:23:48;53.00;38.54;68.57;;
68279;Laerm;55108;51.790;10.960;2023-03-11T03:26:13;55.45;37.96;68.39;;
68279;Laerm;55108;51.790;10.960;2023-03-11T03:28:38;62.78;32.59;82.93;;
68279;Laerm;55108;51.790;10.960;2023-03-11T03:31:04;58.01;32.55;75.04;;
68279;Laerm;55108;51.790;10.960;2023-03-11T03:33:30;60.47;33.64;78.07;;
68279;Laerm;55108;51.790;10.960;2023-03-11T03:35:56;65.62;33.44;84.86;;
68279;Laerm;55108;51.790;10.960;2023-03-11T03:38:21;62.37;34.49;81.16;;
68279;Laerm;55108;51.790;10.960;2023-03-11T03:40:46;41.31;33.04;48.19;;
68279;Laerm;55108;51.790;10.960;2023-03-11T03:43:11;40.07;33.60;54.45;;
68279;Laerm;55108;51.790;10.960;2023-03-11T03:45:36;64.53;35.91;84.15;;
68279;Laerm;55108;51.790;10.960;2023-03-11T03:48:02;63.97;35.69;78.49;;
68279;Laerm;55108;51.790;10.960;2023-03-11T03:50:27;54.90;36.64;70.62;;
68279;Laerm;55108;51.790;10.960;2023-03-11T03:52:52;39.35;33.15;52.15;;
68279;Laerm;55108;51.790;10.960;2023-03-11T03:55:17;47.67;35.04;62.89;;
68279;Laerm;55108;51.790;10.960;2023-03-11T03:57:42;40.47;32.66;56.47;;
68279;Laerm;55108;51.790;10.960;2023-03-11T04:00:07;54.65;31.90;70.63;;
68279;Laerm;55108;51.790;10.960;2023-03-11T04:02:33;43.12;31.50;58.49;;
68279;Laerm;55108;51.790;10.960;2023-03-11T04:04:58;59.26;34.53;76.40;;
68279;Laerm;55108;51.790;10.960;2023-03-11T04:07:23;58.61;33.82;74.47;;
68279;Laerm;55108;51.790;10.960;2023-03-11T04:09:48;53.07;33.93;68.23;;
68279;Laerm;55108;51.790;10.960;2023-03-11T04:12:14;56.33;34.00;69.48;;
68279;Laerm;55108;51.790;10.960;2023-03-11T04:14:41;66.01;37.55;90.07;;
68279;Laerm;55108;51.790;10.960;2023-03-11T04:17:07;59.84;32.89;74.91;;
68279;Laerm;55108;51.790;10.960;2023-03-11T04:19:32;59.64;37.01;76.98;;
68279;Laerm;55108;51.790;10.960;2023-03-11T04:21:57;66.31;37.33;84.82;;
68279;Laerm;55108;51.790;10.960;2023-03-11T04:24:23;61.31;33.95;76.12;;
68279;Laerm;55108;51.790;10.960;2023-03-11T04:26:48;61.04;36.29;77.85;;
68279;Laerm;55108;51.790;10.960;2023-03-11T04:29:13;60.15;35.30;79.93;;
68279;Laerm;55108;51.790;10.960;2023-03-11T04:31:38;63.00;32.19;81.59;;
68279;Laerm;55108;51.790;10.960;2023-03-11T04:34:03;58.67;34.97;76.31;;
68279;Laerm;55108;51.790;10.960;2023-03-11T04:36:28;60.01;30.82;77.70;;
68279;Laerm;55108;51.790;10.960;2023-03-11T04:38:54;64.20;33.76;81.36;;
68279;Laerm;55108;51.790;10.960;2023-03-11T04:41:20;62.08;36.40;80.02;;
68279;Laerm;55108;51.790;10.960;2023-03-11T04:43:45;60.44;35.66;76.49;;
68279;Laerm;55108;51.790;10.960;2023-03-11T04:46:10;55.99;35.36;75.38;;
68279;Laerm;55108;51.790;10.960;2023-03-11T04:48:35;61.26;34.45;78.41;;
68279;Laerm;55108;51.790;10.960;2023-03-11T04:51:00;63.94;37.44;80.14;;
68279;Laerm;55108;51.790;10.960;2023-03-11T04:53:25;65.98;35.85;81.25;;
68279;Laerm;55108;51.790;10.960;2023-03-11T04:55:51;57.18;34.42;74.06;;
68279;Laerm;55108;51.790;10.960;2023-03-11T04:58:17;64.31;34.05;82.58;;
68279;Laerm;55108;51.790;10.960;2023-03-11T05:00:42;64.56;36.26;80.29;;
68279;Laerm;55108;51.790;10.960;2023-03-11T05:03:08;60.35;37.75;75.29;;
68279;Laerm;55108;51.790;10.960;2023-03-11T05:05:33;53.76;36.57;77.56;;
68279;Laerm;55108;51.790;10.960;2023-03-11T05:07:59;61.53;34.43;79.77;;
68279;Laerm;55108;51.790;10.960;2023-03-11T05:10:24;61.48;34.87;77.44;;
68279;Laerm;55108;51.790;10.960;2023-03-11T05:12:49;57.16;33.48;71.57;;
68279;Laerm;55108;51.790;10.960;2023-03-11T05:15:15;58.16;34.61;77.04;;
68279;Laerm;55108;51.790;10.960;2023-03-11T05:17:40;63.55;34.34;77.89;;
68279;Laerm;55108;51.790;10.960;2023-03-11T05:20:05;56.90;36.15;75.74;;
68279;Laerm;55108;51.790;10.960;2023-03-11T05:22:32;56.36;31.49;75.23;;
68279;Laerm;55108;51.790;10.960;2023-03-11T05:24:57;65.41;32.15;82.46;;
68279;Laerm;55108;51.790;10.960;2023-03-11T05:27:22;61.63;32.72;77.16;;
68279;Laerm;55108;51.790;10.960;2023-03-11T05:29:47;61.87;32.38;77.55;;
68279;Laerm;55108;51.790;10.960;2023-03-11T05:32:12;43.20;35.30;54.26;;
68279;Laerm;55108;51.790;10.960;2023-03-11T05:34:37;61.82;37.14;74.80;;
68279;Laerm;55108;51.790;10.960;2023-03-11T05:37:02;44.38;34.80;56.87;;
68279;Laerm;55108;51.790;10.960;2023-03-11T05:39:28;53.62;34.10;70.78;;
68279;Laerm;55108;51.790;10.960;2023-03-11T05:41:53;58.25;36.23;71.67;;
68279;Laerm;55108;51.790;10.960;2023-03-11T05:44:20;43.89;35.56;64.01;;
68279;Laerm;55108;51.790;10.960;2023-03-11T05:46:45;63.12;37.89;80.30;;
68279;Laerm;55108;51.790;10.960;2023-03-11T05:49:10;56.12;34.47;74.43;;
68279;Laerm;55108;51.790;10.960;2023-03-11T05:51:35;63.78;36.08;79.64;;
68279;Laerm;55108;51.790;10.960;2023-03-11T05:54:02;61.72;36.02;78.17;;
68279;Laerm;55108;51.790;10.960;2023-03-11T05:56:27;66.24;38.41;79.31;;
68279;Laerm;55108;51.790;10.960;2023-03-11T05:58:52;67.28;37.28;80.11;;
68279;Laerm;55108;51.790;10.960;2023-03-11T06:01:17;61.60;34.45;74.72;;
68279;Laerm;55108;51.790;10.960;2023-03-11T06:03:43;67.10;35.24;84.88;;
68279;Laerm;55108;51.790;10.960;2023-03-11T06:06:09;66.20;37.12;83.37;;
68279;Laerm;55108;51.790;10.960;2023-03-11T06:08:34;65.30;37.85;80.97;;
68279;Laerm;55108;51.790;10.960;2023-03-11T06:11:03;65.31;39.01;79.42;;
68279;Laerm;55108;51.790;10.960;2023-03-11T06:13:29;63.60;36.63;79.13;;
68279;Laerm;55108;51.790;10.960;2023-03-11T06:15:54;68.64;44.80;85.14;;
68279;Laerm;55108;51.790;10.960;2023-03-11T06:18:19;62.68;36.61;76.64;;
68279;Laerm;55108;51.790;10.960;2023-03-11T06:20:45;65.78;38.11;79.87;;
68279;Laerm;55108;51.790;10.960;2023-03-11T06:23:10;64.82;34.18;78.53;;
68279;Laerm;55108;51.790;10.960;2023-03-11T06:25:35;64.16;34.92;77.75;;
68279;Laerm;55108;51.790;10.960;2023-03-11T06:28:00;66.50;37.92;79.72;;
68279;Laerm;55108;51.790;10.960;2023-03-11T06:30:25;65.73;36.44;80.65;;
68279;Laerm;55108;51.790;10.960;2023-03-11T06:32:50;64.45;36.07;79.01;;
68279;Laerm;55108;51.790;10.960;2023-03-11T06:35:15;63.16;36.38;76.09;;
68279;Laerm;55108;51.790;10.960;2023-03-11T06:37:41;63.95;37.51;78.85;;
68279;Laerm;55108;51.790;10.960;2023-03-11T06:40:07;66.12;38.34;81.49;;
68279;Laerm;55108;51.790;10.960;2023-03-11T06:42:32;62.55;34.17;77.02;;
68279;Laerm;55108;51.790;10.960;2023-03-11T06:44:57;65.49;42.26;76.88;;
68279;Laerm;55108;51.790;10.960;2023-03-11T06:47:22;63.87;37.92;80.53;;
68279;Laerm;55108;51.790;10.960;2023-03-11T06:49:49;64.91;37.44;76.88;;
68279;Laerm;55108;51.790;10.960;2023-03-11T06:52:14;66.37;39.80;80.21;;
68279;Laerm;55108;51.790;10.960;2023-03-11T06:54:39;62.93;35.04;78.50;;
68279;Laerm;55108;51.790;10.960;2023-03-11T06:57:06;61.36;34.05;78.57;;
68279;Laerm;55108;51.790;10.960;2023-03-11T06:59:31;65.94;33.75;80.12;;
68279;Laerm;55108;51.790;10.960;2023-03-11T07:01:57;66.04;35.95;79.82;;
68279;Laerm;55108;51.790;10.960;2023-03-11T07:04:22;65.19;36.22;78.75;;
68279;Laerm;55108;51.790;10.960;2023-03-11T07:06:47;67.69;34.62;81.98;;
68279;Laerm;55108;51.790;10.960;2023-03-11T07:09:13;62.23;33.53;77.23;;
68279;Laerm;55108;51.790;10.960;2023-03-11T07:11:38;67.36;41.06;78.72;;
68279;Laerm;55108;51.790;10.960;2023-03-11T07:14:03;61.62;32.81;77.83;;
68279;Laerm;55108;51.790;10.960;2023-03-11T07:16:29;66.98;34.95;80.00;;
68279;Laerm;55108;51.790;10.960;2023-03-11T07:18:58;63.51;33.27;78.47;;
68279;Laerm;55108;51.790;10.960;2023-03-11T07:21:25;64.02;36.87;76.97;;
68279;Laerm;55108;51.790;10.960;2023-03-11T07:23:54;61.98;38.95;76.76;;
68279;Laerm;55108;51.790;10.960;2023-03-11T07:26:20;64.59;42.07;80.37;;
68279;Laerm;55108;51.790;10.960;2023-03-11T07:28:45;64.20;39.88;77.47;;
68279;Laerm;55108;51.790;10.960;2023-03-11T07:31:13;64.72;37.27;78.20;;
68279;Laerm;55108;51.790;10.960;2023-03-11T07:33:39;64.82;37.89;76.38;;
68279;Laerm;55108;51.790;10.960;2023-03-11T07:36:05;68.76;44.67;80.94;;
68279;Laerm;55108;51.790;10.960;2023-03-11T07:38:31;66.04;36.96;77.99;;
68279;Laerm;55108;51.790;10.960;2023-03-11T07:40:56;65.67;40.73;77.73;;
68279;Laerm;55108;51.790;10.960;2023-03-11T07:43:22;64.62;37.05;77.56;;
68279;Laerm;55108;51.790;10.960;2023-03-11T07:45:47;66.22;38.35;79.29;;
68279;Laerm;55108;51.790;10.960;2023-03-11T07:48:12;66.07;39.94;79.84;;
68279;Laerm;55108;51.790;10.960;2023-03-11T07:50:37;64.76;37.67;76.66;;
68279;Laerm;55108;51.790;10.960;2023-03-11T07:53:03;65.92;42.39;79.15;;
68279;Laerm;55108;51.790;10.960;2023-03-11T07:55:28;68.09;43.68;79.88;;
68279;Laerm;55108;51.790;10.960;2023-03-11T07:57:53;66.74;38.66;76.86;;
68279;Laerm;55108;51.790;10.960;2023-03-11T08:00:18;63.55;40.43;76.02;;
68279;Laerm;55108;51.790;10.960;2023-03-11T08:02:44;68.81;45.99;79.74;;
68279;Laerm;55108;51.790;10.960;2023-03-11T08:05:09;64.67;37.53;77.50;;
68279;Laerm;55108;51.790;10.960;2023-03-11T08:07:34;67.36;41.67;78.19;;
68279;Laerm;55108;51.790;10.960;2023-03-11T08:09:59;68.12;38.48;82.78;;
68279;Laerm;55108;51.790;10.960;2023-03-11T08:12:24;69.29;48.00;79.54;;
68279;Laerm;55108;51.790;10.960;2023-03-11T08:14:49;63.81;37.58;77.76;;
68279;Laerm;55108;51.790;10.960;2023-03-11T08:17:15;67.81;40.34;78.27;;
68279;Laerm;55108;51.790;10.960;2023-03-11T08:19:40;68.62;44.26;78.70;;
68279;Laerm;55108;51.790;10.960;2023-03-11T08:22:05;66.60;45.04;82.10;;
68279;Laerm;55108;51.790;10.960;2023-03-11T08:24:30;65.69;40.67;77.69;;
68279;Laerm;55108;51.790;10.960;2023-03-11T08:26:55;69.36;46.05;84.62;;
68279;Laerm;55108;51.790;10.960;2023-03-11T08:29:21;67.63;38.37;76.79;;
68279;Laerm;55108;51.790;10.960;2023-03-11T08:31:46;67.56;42.12;78.27;;
68279;Laerm;55108;51.790;10.960;2023-03-11T08:34:11;68.89;45.88;79.78;;
68279;Laerm;55108;51.790;10.960;2023-03-11T08:36:37;68.20;45.65;79.51;;
68279;Laerm;55108;51.790;10.960;2023-03-11T08:39:02;68.09;40.07;78.99;;
68279;Laerm;55108;51.790;10.960;2023-03-11T08:41:28;66.53;42.00;78.00;;
68279;Laerm;55108;51.790;10.960;2023-03-11T08:43:53;67.14;41.18;78.90;;
68279;Laerm;55108;51.790;10.960;2023-03-11T08:46:31;68.04;50.31;77.94;;
68279;Laerm;55108;51.790;10.960;2023-03-11T08:48:57;67.98;41.10;82.04;;
68279;Laerm;55108;51.790;10.960;2023-03-11T08:51:24;68.03;44.18;79.03;;
68279;Laerm;55108;51.790;10.960;2023-03-11T08:53:49;68.89;45.76;78.19;;
68279;Laerm;55108;51.790;10.960;2023-03-11T08:56:15;69.17;42.76;82.49;;
68279;Laerm;55108;51.790;10.960;2023-03-11T08:58:40;65.23;40.25;76.29;;
68279;Laerm;55108;51.790;10.960;2023-03-11T09:01:06;67.97;41.20;77.87;;
68279;Laerm;55108;51.790;10.960;2023-03-11T09:03:33;68.98;43.46;78.72;;
68279;Laerm;55108;51.790;10.960;2023-03-11T09:05:59;67.07;43.11;78.38;;
68279;Laerm;55108;51.790;10.960;2023-03-11T09:08:25;68.12;44.64;78.45;;
68279;Laerm;55108;51.790;10.960;2023-03-11T09:10:51;68.39;40.78;79.79;;
68279;Laerm;55108;51.790;10.960;2023-03-11T09:13:16;70.33;50.54;80.43;;
68279;Laerm;55108;51.790;10.960;2023-03-11T09:15:41;68.20;43.01;78.34;;
68279;Laerm;55108;51.790;10.960;2023-03-11T09:18:06;67.88;41.54;79.95;;
68279;Laerm;55108;51.790;10.960;2023-03-11T09:20:36;66.18;39.74;77.48;;
68279;Laerm;55108;51.790;10.960;2023-03-11T09:23:02;69.02;44.38;77.22;;
68279;Laerm;55108;51.790;10.960;2023-03-11T09:25:27;68.54;50.09;78.35;;
68279;Laerm;55108;51.790;10.960;2023-03-11T09:27:52;69.08;48.94;77.71;;
68279;Laerm;55108;51.790;10.960;2023-03-11T09:30:17;69.48;47.72;78.26;;
68279;Laerm;55108;51.790;10.960;2023-03-11T09:32:42;69.48;42.29;87.00;;
68279;Laerm;55108;51.790;10.960;2023-03-11T09:35:08;69.76;48.92;83.87;;
68279;Laerm;55108;51.790;10.960;2023-03-11T09:37:33;66.46;39.46;79.92;;
68279;Laerm;55108;51.790;10.960;2023-03-11T09:39:58;68.91;44.24;79.01;;
68279;Laerm;55108;51.790;10.960;2023-03-11T09:42:36;69.04;42.72;78.19;;
68279;Laerm;55108;51.790;10.960;2023-03-11T09:45:03;69.39;48.79;78.52;;
68279;Laerm;55108;51.790;10.960;2023-03-11T09:47:35;69.69;48.12;79.49;;
68279;Laerm;55108;51.790;10.960;2023-03-11T09:50:08;68.19;43.92;79.00;;
68279;Laerm;55108;51.790;10.960;2023-03-11T09:52:41;68.72;43.89;78.19;;
68279;Laerm;55108;51.790;10.960;2023-03-11T09:55:12;68.73;42.68;79.16;;
68279;Laerm;55108;51.790;10.960;2023-03-11T09:57:45;67.69;40.11;78.70;;
68279;Laerm;55108;51.790;10.960;2023-03-11T10:00:10;66.64;41.25;77.78;;
68279;Laerm;55108;51.790;10.960;2023-03-11T10:02:36;67.98;41.09;77.97;;
68279;Laerm;55108;51.790;10.960;2023-03-11T10:05:05;69.07;43.97;81.28;;
68279;Laerm;55108;51.790;10.960;2023-03-11T10:07:34;66.19;40.20;76.74;;
68279;Laerm;55108;51.790;10.960;2023-03-11T10:10:00;67.57;45.65;77.68;;
68279;Laerm;55108;51.790;10.960;2023-03-11T10:20:02;67.79;42.59;77.38;;
68279;Laerm;55108;51.790;10.960;2023-03-11T10:22:31;66.96;43.92;77.72;;
68279;Laerm;55108;51.790;10.960;2023-03-11T10:25:15;68.16;44.65;78.14;;
68279;Laerm;55108;51.790;10.960;2023-03-11T10:27:49;66.87;41.82;76.80;;
68279;Laerm;55108;51.790;10.960;2023-03-11T10:30:29;70.64;52.63;83.88;;
68279;Laerm;55108;51.790;10.960;2023-03-11T10:35:21;68.14;44.22;77.88;;
68279;Laerm;55108;51.790;10.960;2023-03-11T10:37:57;68.26;40.09;78.23;;
68279;Laerm;55108;51.790;10.960;2023-03-11T10:42:57;66.98;42.39;79.02;;
68279;Laerm;55108;51.790;10.960;2023-03-11T10:45:23;68.98;47.20;81.57;;
68279;Laerm;55108;51.790;10.960;2023-03-11T10:47:49;69.23;48.05;77.91;;
68279;Laerm;55108;51.790;10.960;2023-03-11T10:50:14;66.98;40.71;76.79;;
68279;Laerm;55108;51.790;10.960;2023-03-11T10:52:43;66.88;40.80;77.48;;
68279;Laerm;55108;51.790;10.960;2023-03-11T10:55:10;68.00;39.34;78.85;;
68279;Laerm;55108;51.790;10.960;2023-03-11T10:57:40;69.40;44.20;77.91;;
68279;Laerm;55108;51.790;10.960;2023-03-11T11:00:06;66.70;38.93;79.79;;
68279;Laerm;55108;51.790;10.960;2023-03-11T11:02:51;68.12;44.60;78.98;;
68279;Laerm;55108;51.790;10.960;2023-03-11T11:07:49;67.76;42.63;78.42;;
68279;Laerm;55108;51.790;10.960;2023-03-11T11:10:21;67.48;42.33;80.23;;
68279;Laerm;55108;51.790;10.960;2023-03-11T11:12:50;69.11;47.68;79.71;;
68279;Laerm;55108;51.790;10.960;2023-03-11T11:15:20;65.95;40.82;78.23;;
68279;Laerm;55108;51.790;10.960;2023-03-11T11:17:45;69.28;43.14;81.33;;
68279;Laerm;55108;51.790;10.960;2023-03-11T11:20:14;67.67;43.10;77.90;;
68279;Laerm;55108;51.790;10.960;2023-03-11T11:22:46;67.42;45.28;78.94;;
68279;Laerm;55108;51.790;10.960;2023-03-11T11:27:56;66.96;41.98;78.73;;
68279;Laerm;55108;51.790;10.960;2023-03-11T11:30:22;65.02;40.13;78.05;;
68279;Laerm;55108;51.790;10.960;2023-03-11T11:32:48;67.91;45.55;80.69;;
68279;Laerm;55108;51.790;10.960;2023-03-11T11:35:17;64.62;40.61;79.68;;
68279;Laerm;55108;51.790;10.960;2023-03-11T11:37:48;62.59;40.14;74.69;;
68279;Laerm;55108;51.790;10.960;2023-03-11T11:42:43;65.77;41.91;79.93;;
68279;Laerm;55108;51.790;10.960;2023-03-11T11:45:19;65.68;38.91;77.66;;
68279;Laerm;55108;51.790;10.960;2023-03-11T11:47:48;66.22;39.28;77.06;;
68279;Laerm;55108;51.790;10.960;2023-03-11T11:50:35;64.93;40.28;78.14;;
68279;Laerm;55108;51.790;10.960;2023-03-11T11:53:14;66.72;39.41;79.36;;
68279;Laerm;55108;51.790;10.960;2023-03-11T11:55:46;67.90;40.32;92.36;;
68279;Laerm;55108;51.790;10.960;2023-03-11T11:58:12;65.08;39.20;75.36;;
68279;Laerm;55108;51.790;10.960;2023-03-11T12:00:41;64.82;39.67;76.51;;
68279;Laerm;55108;51.790;10.960;2023-03-11T12:05:34;65.39;42.49;78.99;;
68279;Laerm;55108;51.790;10.960;2023-03-11T12:08:22;66.93;41.84;78.74;;
68279;Laerm;55108;51.790;10.960;2023-03-11T12:10:54;65.08;42.60;81.39;;
68279;Laerm;55108;51.790;10.960;2023-03-11T12:17:04;65.88;39.47;79.13;;
68279;Laerm;55108;51.790;10.960;2023-03-11T12:18:59;66.74;40.02;77.73;;
68279;Laerm;55108;51.790;10.960;2023-03-11T12:21:37;66.79;42.93;79.65;;
68279;Laerm;55108;51.790;10.960;2023-03-11T12:24:10;65.42;39.39;76.30;;
68279;Laerm;55108;51.790;10.960;2023-03-11T12:26:41;67.07;37.98;78.79;;
68279;Laerm;55108;51.790;10.960;2023-03-11T12:29:25;65.32;40.13;78.78;;
68279;Laerm;55108;51.790;10.960;2023-03-11T12:31:53;66.62;38.82;81.29;;
68279;Laerm;55108;51.790;10.960;2023-03-11T12:34:19;65.72;40.30;76.36;;
68279;Laerm;55108;51.790;10.960;2023-03-11T12:36:45;65.06;42.25;78.13;;
68279;Laerm;55108;51.790;10.960;2023-03-11T12:39:19;66.19;39.12;79.38;;
68279;Laerm;55108;51.790;10.960;2023-03-11T12:41:44;65.40;39.97;76.76;;
68279;Laerm;55108;51.790;10.960;2023-03-11T12:54:33;65.51;39.46;78.38;;
68279;Laerm;55108;51.790;10.960;2023-03-11T12:57:04;65.11;38.15;76.64;;
68279;Laerm;55108;51.790;10.960;2023-03-11T13:09:58;64.89;39.31;76.75;;
68279;Laerm;55108;51.790;10.960;2023-03-11T13:13:09;66.84;42.64;79.87;;
68279;Laerm;55108;51.790;10.960;2023-03-11T13:17:40;66.95;37.26;82.99;;
68279;Laerm;55108;51.790;10.960;2023-03-11T13:20:37;68.29;40.23;79.76;;
68279;Laerm;55108;51.790;10.960;2023-03-11T13:27:50;67.30;47.14;76.54;;
68279;Laerm;55108;51.790;10.960;2023-03-11T13:30:18;67.95;45.84;76.05;;
68279;Laerm;55108;51.790;10.960;2023-03-11T13:32:58;67.50;38.62;79.15;;
68279;Laerm;55108;51.790;10.960;2023-03-11T13:35:45;67.76;44.86;77.97;;
68279;Laerm;55108;51.790;10.960;2023-03-11T13:38:24;65.13;38.31;78.33;;
68279;Laerm;55108;51.790;10.960;2023-03-11T13:40:56;67.24;40.81;78.92;;
68279;Laerm;55108;51.790;10.960;2023-03-11T13:43:22;67.50;39.85;78.21;;
68279;Laerm;55108;51.790;10.960;2023-03-11T13:45:52;62.88;38.87;77.51;;
68279;Laerm;55108;51.790;10.960;2023-03-11T13:48:20;68.01;42.19;80.15;;
68279;Laerm;55108;51.790;10.960;2023-03-11T13:50:52;67.14;45.01;79.05;;
68279;Laerm;55108;51.790;10.960;2023-03-11T13:53:39;67.10;44.24;78.50;;
68279;Laerm;55108;51.790;10.960;2023-03-11T13:56:17;67.22;43.53;79.95;;
68279;Laerm;55108;51.790;10.960;2023-03-11T13:58:44;66.05;41.45;80.41;;
68279;Laerm;55108;51.790;10.960;2023-03-11T14:01:13;66.50;37.40;77.23;;
68279;Laerm;55108;51.790;10.960;2023-03-11T14:03:40;66.96;41.75;78.37;;
68279;Laerm;55108;51.790;10.960;2023-03-11T14:06:07;67.24;37.39;78.59;;
68279;Laerm;55108;51.790;10.960;2023-03-11T14:08:33;69.99;41.85;83.22;;
68279;Laerm;55108;51.790;10.960;2023-03-11T14:13:44;63.31;41.24;75.16;;
68279;Laerm;55108;51.790;10.960;2023-03-11T14:16:17;65.15;39.37;78.13;;
68279;Laerm;55108;51.790;10.960;2023-03-11T14:18:44;66.70;43.61;76.38;;
68279;Laerm;55108;51.790;10.960;2023-03-11T14:21:20;64.34;41.82;78.08;;
68279;Laerm;55108;51.790;10.960;2023-03-11T14:23:49;66.21;41.02;77.23;;
68279;Laerm;55108;51.790;10.960;2023-03-11T14:26:22;66.94;46.55;78.22;;
68279;Laerm;55108;51.790;10.960;2023-03-11T14:28:49;66.56;43.09;83.14;;
68279;Laerm;55108;51.790;10.960;2023-03-11T14:31:28;66.34;37.06;78.61;;
68279;Laerm;55108;51.790;10.960;2023-03-11T14:33:54;65.66;40.92;77.59;;